createdAt,value
2018-08-04T00:00:43.498Z,24.80
2018-08-04T00:03:12.967Z,24.80
2018-08-04T00:05:42.252Z,24.80
2018-08-04T00:08:11.519Z,24.80
2018-08-04T00:10:40.763Z,24.70
2018-08-04T00:13:09.967Z,24.70
2018-08-04T00:15:39.153Z,24.70
2018-08-04T00:18:08.379Z,24.70
2018-08-04T00:20:37.711Z,24.60
2018-08-04T00:23:07.123Z,24.60
2018-08-04T00:25:36.403Z,24.60
2018-08-04T00:28:05.744Z,24.60
2018-08-04T00:30:37.979Z,24.50
2018-08-04T00:33:07.247Z,24.50
2018-08-04T00:35:36.473Z,24.50
2018-08-04T00:38:05.747Z,24.40
2018-08-04T00:40:34.951Z,24.40
2018-08-04T00:43:04.352Z,24.40
2018-08-04T00:45:33.635Z,24.30
2018-08-04T00:48:02.932Z,24.30
2018-08-04T00:50:32.182Z,24.30
2018-08-04T00:53:01.451Z,24.30
2018-08-04T00:55:30.804Z,24.30
2018-08-04T00:58:00.071Z,24.20
2018-08-04T01:00:29.447Z,24.20
2018-08-04T01:02:58.775Z,24.20
2018-08-04T01:05:28.042Z,24.20
2018-08-04T01:07:57.235Z,24.20
2018-08-04T01:10:26.484Z,24.10
2018-08-04T01:12:55.744Z,24.10
2018-08-04T01:15:25.033Z,24.10
2018-08-04T01:17:54.287Z,24.00
2018-08-04T01:20:23.402Z,24.00
2018-08-04T01:22:52.671Z,23.90
2018-08-04T01:25:21.902Z,23.90
2018-08-04T01:27:51.175Z,23.80
2018-08-04T01:30:20.467Z,23.80
2018-08-04T01:32:49.685Z,23.80
2018-08-04T01:35:18.943Z,23.80
2018-08-04T01:37:48.204Z,23.70
2018-08-04T01:40:17.524Z,23.70
2018-08-04T01:42:46.833Z,23.70
2018-08-04T01:45:16.043Z,23.60
2018-08-04T01:47:45.265Z,23.60
2018-08-04T01:50:14.486Z,23.50
2018-08-04T01:52:43.758Z,23.50
2018-08-04T01:57:41.785Z,23.50
2018-08-04T02:00:11.036Z,23.40
2018-08-04T02:02:40.294Z,23.40
2018-08-04T02:05:09.551Z,23.40
2018-08-04T02:07:38.806Z,23.40
2018-08-04T02:10:08.027Z,23.40
2018-08-04T02:12:37.259Z,23.40
2018-08-04T02:15:06.599Z,23.30
2018-08-04T02:17:35.849Z,23.30
2018-08-04T02:20:05.175Z,23.20
2018-08-04T02:22:34.552Z,23.20
2018-08-04T02:25:03.960Z,23.20
2018-08-04T02:27:33.283Z,23.20
2018-08-04T02:30:02.640Z,23.10
2018-08-04T02:32:31.928Z,23.20
2018-08-04T02:35:01.456Z,23.10
2018-08-04T02:37:30.708Z,23.00
2018-08-04T02:39:59.995Z,23.00
2018-08-04T02:42:29.215Z,23.00
2018-08-04T02:44:58.432Z,22.90
2018-08-04T02:47:27.651Z,22.90
2018-08-04T02:49:56.909Z,22.90
2018-08-04T02:52:26.130Z,22.80
2018-08-04T02:54:55.383Z,22.80
2018-08-04T02:57:24.615Z,22.80
2018-08-04T02:59:53.840Z,22.70
2018-08-04T03:02:23.082Z,22.70
2018-08-04T03:04:52.327Z,22.60
2018-08-04T03:07:21.627Z,22.60
2018-08-04T03:09:51.087Z,22.60
2018-08-04T03:12:20.299Z,22.50
2018-08-04T03:14:49.560Z,22.50
2018-08-04T03:17:18.844Z,22.50
2018-08-04T03:19:48.145Z,22.50
2018-08-04T03:22:17.391Z,22.40
2018-08-04T03:24:46.671Z,22.40
2018-08-04T03:27:16.004Z,22.40
2018-08-04T03:29:45.260Z,22.30
2018-08-04T03:32:14.523Z,22.30
2018-08-04T03:34:43.751Z,22.30
2018-08-04T03:37:12.978Z,22.30
2018-08-04T03:39:42.188Z,22.20
2018-08-04T03:42:11.504Z,22.20
2018-08-04T03:44:40.730Z,22.20
2018-08-04T03:47:10.047Z,22.20
2018-08-04T03:49:39.240Z,22.20
2018-08-04T03:52:08.531Z,22.10
2018-08-04T03:54:37.732Z,22.10
2018-08-04T03:57:07.106Z,22.00
2018-08-04T03:59:36.348Z,22.00
2018-08-04T04:02:06.577Z,22.00
2018-08-04T04:04:35.822Z,22.00
2018-08-04T04:07:05.125Z,22.00
2018-08-04T04:09:34.490Z,21.90
2018-08-04T04:15:13.727Z,21.90
2018-08-04T04:17:46.191Z,21.80
2018-08-04T04:20:16.441Z,21.80
2018-08-04T04:22:45.649Z,21.80
2018-08-04T04:25:14.944Z,21.70
2018-08-04T04:27:44.633Z,21.70
2018-08-04T04:32:43.570Z,21.70
2018-08-04T04:35:12.819Z,21.70
2018-08-04T04:37:42.015Z,21.70
2018-08-04T04:40:11.252Z,21.70
2018-08-04T04:42:40.448Z,21.70
2018-08-04T04:45:10.991Z,21.70
2018-08-04T04:47:40.141Z,21.70
2018-08-04T04:50:09.355Z,21.70
2018-08-04T04:52:38.898Z,21.70
2018-08-04T04:55:08.142Z,21.80
2018-08-04T04:57:37.328Z,21.80
2018-08-04T05:00:06.847Z,21.90
2018-08-04T05:02:36.139Z,21.90
2018-08-04T05:05:06.419Z,21.90
2018-08-04T05:07:35.655Z,22.00
2018-08-04T05:10:05.395Z,22.00
2018-08-04T05:12:34.760Z,22.00
2018-08-04T05:15:04.571Z,22.10
2018-08-04T05:17:33.843Z,22.10
2018-08-04T05:20:03.215Z,22.10
2018-08-04T05:22:32.484Z,22.20
2018-08-04T05:25:01.735Z,22.30
2018-08-04T05:27:30.940Z,22.30
2018-08-04T05:30:00.312Z,22.40
2018-08-04T05:32:29.723Z,22.40
2018-08-04T05:34:58.991Z,22.50
2018-08-04T05:37:28.316Z,22.60
2018-08-04T05:39:57.747Z,22.60
2018-08-04T05:42:27.422Z,22.60
2018-08-04T05:44:56.786Z,22.70
2018-08-04T05:47:25.989Z,22.80
2018-08-04T05:49:55.223Z,22.90
2018-08-04T05:52:24.519Z,22.90
2018-08-04T05:54:54.000Z,23.00
2018-08-04T05:57:23.368Z,23.10
2018-08-04T05:59:52.615Z,23.20
2018-08-04T06:02:21.855Z,23.30
2018-08-04T06:04:51.114Z,23.30
2018-08-04T06:07:20.382Z,23.40
2018-08-04T06:09:49.507Z,23.50
2018-08-04T06:12:19.381Z,23.60
2018-08-04T06:14:48.592Z,23.70
2018-08-04T06:17:20.865Z,23.80
2018-08-04T06:19:50.419Z,23.90
2018-08-04T06:22:19.699Z,24.00
2018-08-04T06:24:52.221Z,24.10
2018-08-04T06:27:25.100Z,24.20
2018-08-04T06:29:55.225Z,24.30
2018-08-04T06:32:27.018Z,24.30
2018-08-04T06:34:57.264Z,24.40
2018-08-04T06:37:26.491Z,24.60
2018-08-04T06:39:55.952Z,24.60
2018-08-04T06:42:25.204Z,24.70
2018-08-04T06:44:55.180Z,24.80
2018-08-04T06:47:26.648Z,24.90
2018-08-04T06:49:55.847Z,25.00
2018-08-04T06:52:25.460Z,25.00
2018-08-04T06:54:55.441Z,25.10
2018-08-04T06:57:29.708Z,25.20
2018-08-04T06:59:59.417Z,25.20
2018-08-04T07:02:28.866Z,25.30
2018-08-04T07:04:58.142Z,25.30
2018-08-04T07:07:27.372Z,25.40
2018-08-04T07:09:56.699Z,25.40
2018-08-04T07:12:25.931Z,25.40
2018-08-04T07:14:55.244Z,25.50
2018-08-04T07:17:24.505Z,25.50
2018-08-04T07:19:53.735Z,25.60
2018-08-04T07:22:23.011Z,25.70
2018-08-04T07:24:52.275Z,25.80
2018-08-04T07:27:21.564Z,25.80
2018-08-04T07:29:51.361Z,25.90
2018-08-04T07:32:20.651Z,26.00
2018-08-04T07:34:49.893Z,26.00
2018-08-04T07:37:19.192Z,26.10
2018-08-04T07:39:48.510Z,26.20
2018-08-04T07:42:17.750Z,26.20
2018-08-04T07:44:47.019Z,26.30
2018-08-04T07:47:16.265Z,26.40
2018-08-04T07:49:45.592Z,26.40
2018-08-04T07:55:10.069Z,26.50
2018-08-04T07:57:39.327Z,26.50
2018-08-04T08:00:09.251Z,26.60
2018-08-04T08:02:38.540Z,26.60
2018-08-04T08:05:07.798Z,26.70
2018-08-04T08:07:37.119Z,26.80
2018-08-04T08:10:06.667Z,26.90
2018-08-04T08:12:36.883Z,26.90
2018-08-04T08:15:07.799Z,27.00
2018-08-04T08:17:37.262Z,27.00
2018-08-04T08:20:06.831Z,27.10
2018-08-04T08:22:40.324Z,27.10
2018-08-04T08:25:10.264Z,27.10
2018-08-04T08:27:39.869Z,27.20
2018-08-04T08:30:12.658Z,27.20
2018-08-04T08:32:41.829Z,27.20
2018-08-04T08:35:11.323Z,27.30
2018-08-04T08:37:40.735Z,27.40
2018-08-04T08:40:10.195Z,27.50
2018-08-04T08:42:39.455Z,27.60
2018-08-04T08:45:10.020Z,27.70
2018-08-04T08:47:39.335Z,27.90
2018-08-04T08:50:11.142Z,28.00
2018-08-04T08:52:40.558Z,28.00
2018-08-04T08:55:10.998Z,28.10
2018-08-04T08:57:40.217Z,28.10
2018-08-04T09:00:11.361Z,28.10
2018-08-04T09:02:40.567Z,28.20
2018-08-04T09:05:10.794Z,28.20
2018-08-04T09:07:40.422Z,28.20
2018-08-04T09:10:12.268Z,28.20
2018-08-04T09:15:10.820Z,28.40
2018-08-04T09:17:40.079Z,28.50
2018-08-04T09:20:10.578Z,28.60
2018-08-04T09:22:44.540Z,28.70
2018-08-04T09:25:14.010Z,28.70
2018-08-04T09:27:43.113Z,28.80
2018-08-04T09:30:13.638Z,28.90
2018-08-04T09:32:44.309Z,29.00
2018-08-04T09:35:14.887Z,29.10
2018-08-04T09:37:44.336Z,29.20
2018-08-04T09:40:14.747Z,29.30
2018-08-04T09:42:45.024Z,29.30
2018-08-04T09:45:14.351Z,29.40
2018-08-04T09:48:05.586Z,29.50
2018-08-04T09:50:50.034Z,29.60
2018-08-04T09:53:26.405Z,29.70
2018-08-04T09:55:57.134Z,29.80
2018-08-04T09:58:27.364Z,29.90
2018-08-04T10:01:01.654Z,30.00
2018-08-04T10:03:40.068Z,30.10
2018-08-04T10:09:03.168Z,30.20
2018-08-04T10:11:32.856Z,30.20
2018-08-04T10:14:03.005Z,30.20
2018-08-04T10:16:32.431Z,30.30
2018-08-04T10:19:02.342Z,30.40
2018-08-04T10:21:32.176Z,30.40
2018-08-04T10:24:02.044Z,30.50
2018-08-04T10:26:31.492Z,30.50
2018-08-04T10:29:00.920Z,30.60
2018-08-04T10:31:30.324Z,30.70
2018-08-04T10:33:59.804Z,30.80
2018-08-04T10:36:29.036Z,30.90
2018-08-04T10:38:58.503Z,31.10
2018-08-04T10:41:29.147Z,31.20
2018-08-04T10:43:58.938Z,31.20
2018-08-04T10:46:28.447Z,31.30
2018-08-04T10:48:58.394Z,31.40
2018-08-04T10:51:27.675Z,31.40
2018-08-04T10:53:56.931Z,31.50
2018-08-04T10:56:26.281Z,31.60
2018-08-04T10:58:56.058Z,31.70
2018-08-04T11:01:25.650Z,31.80
2018-08-04T11:03:54.905Z,31.90
2018-08-04T11:06:23.896Z,31.90
2018-08-04T11:08:53.039Z,32.00
2018-08-04T11:11:22.070Z,32.10
2018-08-04T11:13:51.130Z,32.20
2018-08-04T11:16:20.140Z,32.20
2018-08-04T11:18:58.982Z,32.30
2018-08-04T11:21:28.172Z,32.30
2018-08-04T11:23:57.471Z,32.30
2018-08-04T11:26:26.717Z,32.20
2018-08-04T11:28:55.961Z,32.20
2018-08-04T11:31:25.263Z,32.20
2018-08-04T11:33:54.805Z,32.20
2018-08-04T11:36:24.436Z,32.20
2018-08-04T11:38:53.997Z,32.10
2018-08-04T11:41:23.247Z,32.10
2018-08-04T11:43:52.503Z,32.10
2018-08-04T11:46:21.899Z,32.10
2018-08-04T11:48:51.163Z,32.10
2018-08-04T11:51:20.471Z,32.00
2018-08-04T11:53:49.727Z,32.00
2018-08-04T11:56:19.170Z,32.10
2018-08-04T11:58:48.397Z,32.20
2018-08-04T12:03:54.217Z,32.50
2018-08-04T12:06:23.537Z,32.70
2018-08-04T12:08:52.703Z,32.80
2018-08-04T12:11:22.236Z,32.80
2018-08-04T12:13:51.543Z,32.90
2018-08-04T12:16:20.827Z,33.00
2018-08-04T12:18:50.642Z,33.20
2018-08-04T12:21:19.888Z,33.30
2018-08-04T12:23:49.183Z,33.30
2018-08-04T12:26:18.560Z,33.40
2018-08-04T12:28:47.824Z,33.50
2018-08-04T12:31:17.516Z,33.60
2018-08-04T12:33:46.903Z,33.70
2018-08-04T12:38:44.868Z,33.90
2018-08-04T12:41:14.148Z,34.00
2018-08-04T12:43:43.404Z,34.10
2018-08-04T12:46:12.660Z,34.30
2018-08-04T12:48:41.918Z,34.40
2018-08-04T12:51:11.168Z,34.60
2018-08-04T12:53:41.006Z,34.90
2018-08-04T12:56:10.220Z,35.10
2018-08-04T12:58:40.216Z,35.20
2018-08-04T13:01:09.414Z,35.20
2018-08-04T13:03:38.712Z,35.30
2018-08-04T13:06:08.023Z,35.40
2018-08-04T13:08:38.036Z,35.30
2018-08-04T13:11:07.198Z,35.40
2018-08-04T13:13:36.480Z,35.30
2018-08-04T13:16:05.768Z,35.10
2018-08-04T13:18:35.042Z,35.00
2018-08-04T13:21:04.275Z,34.80
2018-08-04T13:23:33.498Z,34.60
2018-08-04T13:26:03.813Z,34.50
2018-08-04T13:28:33.022Z,34.30
2018-08-04T13:31:02.504Z,34.20
2018-08-04T13:33:36.025Z,34.00
2018-08-04T13:36:05.272Z,33.90
2018-08-04T13:38:34.491Z,33.80
2018-08-04T13:41:03.734Z,33.60
2018-08-04T13:43:33.043Z,33.40
2018-08-04T13:46:02.301Z,33.20
2018-08-04T13:48:31.618Z,33.00
2018-08-04T13:51:00.868Z,32.70
2018-08-04T13:53:30.158Z,32.60
2018-08-04T13:55:59.324Z,32.50
2018-08-04T13:58:29.039Z,32.40
2018-08-04T14:00:58.368Z,32.40
2018-08-04T14:03:27.680Z,32.60
2018-08-04T14:05:57.111Z,32.60
2018-08-04T14:08:26.339Z,32.90
2018-08-04T14:10:55.980Z,33.10
2018-08-04T14:13:25.243Z,33.40
2018-08-04T14:15:54.636Z,33.70
2018-08-04T14:18:38.103Z,33.90
2018-08-04T14:21:08.375Z,34.20
2018-08-04T14:23:37.563Z,34.30
2018-08-04T14:26:06.823Z,34.30
2018-08-04T14:28:36.181Z,34.30
2018-08-04T14:31:06.055Z,34.20
2018-08-04T14:33:35.368Z,33.90
2018-08-04T14:36:04.744Z,33.70
2018-08-04T14:38:34.063Z,33.40
2018-08-04T14:41:03.287Z,33.30
2018-08-04T14:43:32.599Z,33.00
2018-08-04T14:46:01.951Z,33.00
2018-08-04T14:48:31.180Z,32.80
2018-08-04T14:51:01.707Z,32.60
2018-08-04T14:53:30.980Z,32.30
2018-08-04T14:56:00.318Z,32.20
2018-08-04T14:58:29.634Z,32.00
2018-08-04T15:00:58.848Z,31.70
2018-08-04T15:05:56.788Z,31.30
2018-08-04T15:08:26.059Z,31.30
2018-08-04T15:10:55.840Z,31.10
2018-08-04T15:13:25.105Z,31.00
2018-08-04T15:15:54.254Z,30.90
2018-08-04T15:18:23.475Z,30.90
2018-08-04T15:21:02.327Z,30.60
2018-08-04T15:23:31.772Z,30.30
2018-08-04T15:26:00.887Z,30.00
2018-08-04T15:28:30.093Z,29.70
2018-08-04T15:30:59.253Z,29.30
2018-08-04T15:33:28.567Z,29.00
2018-08-04T15:35:57.778Z,28.70
2018-08-04T15:38:27.038Z,28.50
2018-08-04T15:40:56.243Z,28.30
2018-08-04T15:43:25.948Z,28.20
2018-08-04T15:45:55.207Z,28.00
2018-08-04T15:48:24.483Z,27.90
2018-08-04T15:50:54.043Z,27.90
2018-08-04T15:53:23.248Z,27.90
2018-08-04T15:55:52.475Z,27.90
2018-08-04T15:58:21.691Z,27.90
2018-08-04T16:00:50.903Z,27.90
2018-08-04T16:03:20.204Z,28.00
2018-08-04T16:05:49.468Z,28.00
2018-08-04T16:08:18.780Z,28.00
2018-08-04T16:10:48.062Z,28.00
2018-08-04T16:13:17.339Z,28.00
2018-08-04T16:15:46.579Z,27.90
2018-08-04T16:18:15.844Z,27.90
2018-08-04T16:20:45.116Z,27.90
2018-08-04T16:23:14.411Z,27.80
2018-08-04T16:25:43.631Z,27.80
2018-08-04T16:28:12.815Z,27.80
2018-08-04T16:30:42.043Z,27.80
2018-08-04T16:33:11.391Z,27.70
2018-08-04T16:35:40.687Z,27.70
2018-08-04T16:38:09.887Z,27.60
2018-08-04T16:40:39.107Z,27.60
2018-08-04T16:43:08.879Z,27.50
2018-08-04T16:45:38.177Z,27.50
2018-08-04T16:48:07.470Z,27.40
2018-08-04T16:50:36.752Z,27.40
2018-08-04T16:53:06.355Z,27.30
2018-08-04T16:55:35.632Z,27.30
2018-08-04T16:58:04.915Z,27.30
2018-08-04T17:00:34.167Z,27.30
2018-08-04T17:03:03.740Z,27.20
2018-08-04T17:05:32.943Z,27.20
2018-08-04T17:10:32.095Z,27.10
2018-08-04T17:13:01.412Z,27.20
2018-08-04T17:15:30.719Z,27.20
2018-08-04T17:20:29.049Z,27.40
2018-08-04T17:22:58.294Z,27.40
2018-08-04T17:25:27.605Z,27.30
2018-08-04T17:27:56.816Z,27.30
2018-08-04T17:30:26.171Z,27.20
2018-08-04T17:32:55.295Z,27.20
2018-08-04T17:35:24.589Z,27.20
2018-08-04T17:37:53.979Z,27.20
2018-08-04T17:40:23.171Z,27.10
2018-08-04T17:51:55.491Z,27.10
2018-08-04T17:54:25.390Z,27.10
2018-08-04T17:56:54.732Z,27.00
2018-08-04T17:59:24.025Z,27.00
2018-08-04T18:01:53.606Z,27.00
2018-08-04T18:04:22.888Z,27.00
2018-08-04T18:06:52.572Z,27.00
2018-08-04T18:09:21.738Z,27.00
2018-08-04T18:11:53.930Z,27.00
2018-08-04T18:14:24.015Z,27.00
2018-08-04T18:16:54.179Z,27.00
2018-08-04T18:19:41.754Z,27.00
2018-08-04T18:22:11.117Z,27.00
2018-08-04T18:24:40.415Z,27.00
2018-08-04T18:27:09.823Z,26.80
2018-08-04T18:29:39.313Z,26.80
2018-08-04T18:32:09.870Z,26.70
2018-08-04T18:34:39.219Z,26.60
2018-08-04T18:37:08.668Z,26.50
2018-08-04T18:39:37.985Z,26.50
2018-08-04T18:42:07.306Z,26.40
2018-08-04T18:44:36.500Z,26.40
2018-08-04T18:47:05.789Z,26.40
2018-08-04T18:49:35.188Z,26.40
2018-08-04T18:52:04.464Z,26.30
2018-08-04T18:54:33.643Z,26.30
2018-08-04T18:57:02.926Z,26.20
2018-08-04T18:59:32.175Z,26.20
2018-08-04T19:02:01.733Z,26.20
2018-08-04T19:04:30.933Z,26.10
2018-08-04T19:07:00.219Z,26.10
2018-08-04T19:09:29.579Z,26.00
2018-08-04T19:11:59.050Z,25.80
2018-08-04T19:14:28.272Z,25.80
2018-08-04T19:16:57.627Z,25.70
2018-08-04T19:19:27.152Z,25.60
2018-08-04T19:21:56.603Z,25.50
2018-08-04T19:24:26.705Z,25.40
2018-08-04T19:26:56.332Z,25.30
2018-08-04T19:29:25.956Z,25.30
2018-08-04T19:31:55.236Z,25.30
2018-08-04T19:34:24.503Z,25.20
2018-08-04T19:36:53.770Z,25.10
2018-08-04T19:39:23.022Z,25.00
2018-08-04T19:41:52.342Z,25.00
2018-08-04T19:44:21.597Z,25.00
2018-08-04T19:46:50.887Z,24.90
2018-08-04T19:49:20.130Z,24.80
2018-08-04T19:51:49.399Z,24.80
2018-08-04T19:54:18.598Z,24.70
2018-08-04T19:56:47.936Z,24.70
2018-08-04T19:59:17.123Z,24.70
2018-08-04T20:01:46.393Z,24.60
2018-08-04T20:04:16.001Z,24.50
2018-08-04T20:06:45.290Z,24.50
2018-08-04T20:09:14.469Z,24.30
2018-08-04T20:11:43.787Z,24.30
2018-08-04T20:14:13.145Z,24.20
2018-08-04T20:16:42.507Z,24.20
2018-08-04T20:19:11.825Z,24.20
2018-08-04T20:21:41.245Z,24.20
2018-08-04T20:24:10.828Z,24.10
2018-08-04T20:26:40.220Z,24.10
2018-08-04T20:29:09.569Z,24.10
2018-08-04T20:31:38.713Z,24.00
2018-08-04T20:34:08.128Z,24.00
2018-08-04T20:36:37.589Z,24.00
2018-08-04T20:39:09.950Z,24.00
2018-08-04T20:41:40.251Z,24.00
2018-08-04T20:44:09.784Z,23.90
2018-08-04T20:46:39.472Z,23.90
2018-08-04T20:49:08.726Z,23.90
2018-08-04T20:51:38.017Z,23.90
2018-08-04T20:54:07.796Z,23.80
2018-08-04T20:56:37.095Z,23.80
2018-08-04T20:59:06.408Z,23.70
2018-08-04T21:01:44.211Z,23.60
2018-08-04T21:04:13.890Z,23.60
2018-08-04T21:06:43.291Z,23.60
2018-08-04T21:09:22.163Z,23.50
2018-08-04T21:11:52.747Z,23.50
2018-08-04T21:14:23.243Z,23.30
2018-08-04T21:16:59.931Z,23.30
2018-08-04T21:19:29.227Z,23.30
2018-08-04T21:21:58.465Z,23.30
2018-08-04T21:24:27.709Z,23.30
2018-08-04T21:26:57.122Z,23.30
2018-08-04T21:29:26.334Z,23.20
2018-08-04T21:31:56.503Z,23.20
2018-08-04T21:34:25.757Z,23.10
2018-08-04T21:36:55.067Z,23.20
2018-08-04T21:39:24.387Z,23.10
2018-08-04T21:41:53.688Z,23.10
2018-08-04T21:44:23.610Z,23.10
2018-08-04T21:46:52.970Z,23.10
2018-08-04T21:49:22.414Z,23.00
2018-08-04T21:51:52.167Z,23.00
2018-08-04T21:54:21.542Z,23.10
2018-08-04T21:56:50.966Z,23.00
2018-08-04T21:59:20.359Z,23.00
2018-08-04T22:01:56.977Z,23.00
2018-08-04T22:04:26.808Z,23.00
2018-08-04T22:07:47.099Z,22.90
2018-08-04T22:10:16.440Z,22.90
2018-08-04T22:12:45.735Z,22.80
2018-08-04T22:15:15.970Z,22.80
2018-08-04T22:17:45.246Z,22.80
2018-08-04T22:20:15.751Z,22.70
2018-08-04T22:22:45.129Z,22.70
2018-08-04T22:27:44.270Z,22.60
2018-08-04T22:30:14.783Z,22.60
2018-08-04T22:32:44.414Z,22.60
2018-08-04T22:35:13.718Z,22.50
2018-08-04T22:37:43.100Z,22.40
2018-08-04T22:40:13.643Z,22.40
2018-08-04T22:42:43.231Z,22.40
2018-08-04T22:46:23.019Z,22.30
2018-08-04T22:48:53.382Z,22.30
2018-08-04T22:51:25.934Z,22.20
2018-08-04T22:53:55.306Z,22.20
2018-08-04T22:56:24.792Z,22.10
2018-08-04T22:58:54.012Z,22.10
2018-08-04T23:01:23.380Z,22.10
2018-08-04T23:03:52.596Z,22.10
2018-08-04T23:06:21.829Z,22.10
2018-08-04T23:08:51.063Z,22.10
2018-08-04T23:11:20.332Z,22.10
2018-08-04T23:13:49.519Z,22.10
2018-08-04T23:16:18.758Z,22.10
2018-08-04T23:18:48.030Z,22.10
2018-08-04T23:21:17.343Z,22.10
2018-08-04T23:23:46.659Z,22.10
2018-08-04T23:26:15.947Z,22.00
2018-08-04T23:28:45.234Z,22.00
2018-08-04T23:31:14.503Z,21.90
2018-08-04T23:33:43.739Z,21.90
2018-08-04T23:36:13.047Z,21.80
2018-08-04T23:38:42.206Z,21.90
2018-08-04T23:41:11.491Z,21.80
2018-08-04T23:43:40.759Z,21.80
2018-08-04T23:46:10.075Z,21.80
2018-08-04T23:48:39.328Z,21.80
2018-08-04T23:51:08.822Z,21.90
2018-08-04T23:53:38.011Z,21.80
2018-08-04T23:56:07.268Z,21.80
2018-08-04T23:58:36.513Z,21.80
